Time;durP1;ratioP1;P1;durP2;ratioP2;P2;SDS_P1;SDS_P2;PMS_P1;PMS_P2;Temp;Humidity;BMP_temperature;BMP_pressure;BME280_temperature;BME280_humidity;BME280_pressure;Samples;Min_cycle;Max_cycle;Signal;HPM_P1;HPM_P2
2022/04/14 00:01:21;;;;;;;3.17;2.60;;;25.80;35.30;;;;;;5050513;28;20386;-66
2022/04/14 00:03:47;;;;;;;4.33;2.60;;;25.80;35.30;;;;;;5050751;28;20489;-66
2022/04/14 00:06:12;;;;;;;3.30;2.60;;;25.70;35.20;;;;;;5049621;28;20738;-66
2022/04/14 00:08:38;;;;;;;3.40;2.83;;;25.70;35.20;;;;;;5052491;28;20389;-66
2022/04/14 00:11:04;;;;;;;3.50;2.90;;;25.70;35.30;;;;;;5054167;28;20423;-65
2022/04/14 00:13:30;;;;;;;3.47;2.67;;;25.70;35.30;;;;;;5054431;28;20480;-66
2022/04/14 00:15:56;;;;;;;3.47;2.70;;;25.70;35.30;;;;;;5054245;28;20386;-66
2022/04/14 00:18:22;;;;;;;2.95;2.40;;;25.70;35.20;;;;;;5054318;28;20385;-66
2022/04/14 00:20:47;;;;;;;3.42;2.55;;;25.70;35.10;;;;;;5054190;28;20416;-65
2022/04/14 00:23:13;;;;;;;3.60;2.60;;;25.70;35.10;;;;;;5053835;28;20870;-66
2022/04/14 00:25:38;;;;;;;3.33;2.30;;;25.70;35.80;;;;;;5054177;28;20390;-66
2022/04/14 00:28:04;;;;;;;3.33;2.70;;;25.70;35.10;;;;;;5054185;28;20469;-66
2022/04/14 00:30:30;;;;;;;3.33;2.73;;;25.70;35.10;;;;;;5053725;28;20826;-66
2022/04/14 00:32:55;;;;;;;3.85;2.72;;;25.70;35.10;;;;;;5035906;28;20730;-66
2022/04/14 00:35:21;;;;;;;3.22;2.55;;;25.70;35.10;;;;;;5054014;28;20788;-66
2022/04/14 00:37:46;;;;;;;3.37;2.80;;;25.70;35.10;;;;;;5036678;28;20397;-66
2022/04/14 00:40:13;;;;;;;3.45;2.80;;;25.60;34.90;;;;;;5054441;28;20390;-66
2022/04/14 00:42:39;;;;;;;3.42;2.50;;;25.60;35.00;;;;;;5054818;28;20393;-66
2022/04/14 00:45:06;;;;;;;3.40;2.50;;;25.60;35.00;;;;;;5054069;28;20447;-66
2022/04/14 00:47:34;;;;;;;4.13;2.50;;;25.60;35.00;;;;;;5053985;28;20402;-66
2022/04/14 00:50:01;;;;;;;2.97;2.63;;;25.60;35.10;;;;;;5036476;28;20445;-67
2022/04/14 00:52:26;;;;;;;2.72;2.40;;;25.60;35.10;;;;;;5052549;28;20394;-66
2022/04/14 00:54:52;;;;;;;3.27;2.47;;;25.50;35.00;;;;;;5053886;28;20896;-66
2022/04/14 00:57:18;;;;;;;3.00;2.57;;;25.60;35.10;;;;;;5053258;28;20875;-67
2022/04/14 00:59:44;;;;;;;3.67;2.53;;;25.50;35.10;;;;;;5053533;28;20481;-66
2022/04/14 01:02:10;;;;;;;4.00;2.63;;;25.60;35.10;;;;;;5053635;28;20476;-65
2022/04/14 01:04:37;;;;;;;3.03;2.42;;;25.50;34.90;;;;;;5054007;28;20881;-66
2022/04/14 01:07:06;;;;;;;2.97;2.50;;;25.60;35.00;;;;;;5053240;28;20469;-66
2022/04/14 01:09:33;;;;;;;3.33;2.70;;;25.50;35.00;;;;;;5053523;28;20881;-66
2022/04/14 01:12:00;;;;;;;2.70;2.33;;;25.60;34.90;;;;;;5053299;28;20386;-66
2022/04/14 01:14:36;;;;;;;3.20;2.90;;;25.60;34.90;;;;;;5053337;28;20534;-66
2022/04/14 01:17:09;;;;;;;3.42;2.53;;;25.50;34.90;;;;;;5053158;28;20435;-66
2022/04/14 01:19:36;;;;;;;2.78;2.47;;;25.50;34.90;;;;;;5052509;28;20517;-65
2022/04/14 01:22:20;;;;;;;3.15;2.47;;;25.50;34.80;;;;;;5053256;28;20423;-66
2022/04/14 01:24:47;;;;;;;3.22;2.50;;;25.50;34.80;;;;;;5052999;28;20472;-66
2022/04/14 01:27:13;;;;;;;3.40;2.50;;;25.50;34.80;;;;;;5052711;28;20506;-65
2022/04/14 01:29:39;;;;;;;3.30;2.40;;;25.50;34.80;;;;;;5034848;28;20412;-66
2022/04/14 01:32:05;;;;;;;3.38;2.20;;;25.50;34.90;;;;;;5053055;28;20401;-66
2022/04/14 01:34:31;;;;;;;3.00;2.33;;;25.40;34.80;;;;;;5052916;28;20848;-66
2022/04/14 01:36:58;;;;;;;2.83;2.13;;;25.40;34.80;;;;;;5035627;28;20481;-66
2022/04/14 01:39:34;;;;;;;3.30;2.25;;;25.50;35.50;;;;;;5053287;28;20386;-65
2022/04/14 01:41:59;;;;;;;2.97;2.42;;;25.40;34.80;;;;;;5035165;28;20841;-66
2022/04/14 01:44:25;;;;;;;4.20;2.50;;;25.40;34.80;;;;;;5051648;28;20429;-66
2022/04/14 01:46:50;;;;;;;3.40;2.37;;;25.40;34.80;;;;;;5052762;28;20414;-66
2022/04/14 01:49:16;;;;;;;2.85;2.40;;;25.40;34.70;;;;;;5052188;28;20865;-65
2022/04/14 01:51:42;;;;;;;2.93;2.40;;;25.40;34.70;;;;;;5052528;28;20885;-65
2022/04/14 01:54:07;;;;;;;3.00;2.20;;;25.40;34.70;;;;;;5051459;28;20463;-66
2022/04/14 01:56:33;;;;;;;4.00;2.50;;;25.40;34.70;;;;;;5052361;28;20398;-66
2022/04/14 01:58:59;;;;;;;3.35;2.50;;;25.40;34.70;;;;;;5052474;28;20388;-66
2022/04/14 02:01:25;;;;;;;3.50;2.15;;;25.40;34.60;;;;;;5051951;28;20420;-66
2022/04/14 02:03:51;;;;;;;2.90;2.30;;;25.40;34.60;;;;;;5052293;28;20425;-66
2022/04/14 02:06:17;;;;;;;2.97;2.20;;;25.40;34.60;;;;;;5051108;28;20877;-66
2022/04/14 02:08:43;;;;;;;2.90;2.20;;;25.40;34.60;;;;;;5052227;28;20377;-66
2022/04/14 02:11:10;;;;;;;2.83;2.13;;;25.30;34.50;;;;;;5051997;28;20416;-66
2022/04/14 02:13:36;;;;;;;2.75;2.40;;;25.30;34.60;;;;;;5052798;28;20389;-66
2022/04/14 02:16:02;;;;;;;2.60;2.22;;;25.40;34.60;;;;;;5052170;28;20404;-65
2022/04/14 02:18:28;;;;;;;3.30;2.45;;;25.30;34.50;;;;;;5052049;28;20898;-66
2022/04/14 02:20:54;;;;;;;2.60;2.30;;;25.30;35.20;;;;;;5051921;28;20436;-66
2022/04/14 02:23:19;;;;;;;2.85;2.20;;;25.30;34.50;;;;;;5051551;28;20381;-66
2022/04/14 02:25:45;;;;;;;2.80;2.27;;;25.30;34.50;;;;;;5051976;28;20924;-66
2022/04/14 02:28:13;;;;;;;2.60;2.03;;;25.30;34.50;;;;;;5050823;28;20447;-66
2022/04/14 02:30:39;;;;;;;2.60;2.28;;;25.30;34.50;;;;;;5051453;28;20446;-66
2022/04/14 02:33:05;;;;;;;2.70;2.15;;;25.30;34.50;;;;;;5051229;28;20385;-65
2022/04/14 02:35:31;;;;;;;2.55;2.20;;;25.30;34.50;;;;;;5051512;28;20406;-66
2022/04/14 02:37:57;;;;;;;2.53;2.30;;;25.20;34.40;;;;;;5051639;28;20381;-66
2022/04/14 02:40:24;;;;;;;2.50;2.15;;;25.20;34.40;;;;;;5051755;28;20492;-66
2022/04/14 02:42:53;;;;;;;2.65;2.30;;;25.20;34.50;;;;;;5051789;28;20381;-66
2022/04/14 02:45:19;;;;;;;2.92;2.28;;;25.30;34.50;;;;;;5051249;28;20389;-65
2022/04/14 02:47:45;;;;;;;2.50;2.17;;;25.30;34.60;;;;;;5051431;28;20397;-66
2022/04/14 02:50:10;;;;;;;2.83;2.20;;;25.20;34.30;;;;;;5051538;28;20431;-66
2022/04/14 02:52:36;;;;;;;2.70;2.33;;;25.20;34.40;;;;;;5051441;28;20389;-66
2022/04/14 02:55:02;;;;;;;2.78;2.33;;;25.20;34.40;;;;;;5051525;28;20377;-65
2022/04/14 02:57:28;;;;;;;2.70;2.20;;;25.20;34.50;;;;;;5051094;28;20390;-66
2022/04/14 02:59:54;;;;;;;2.40;2.20;;;25.20;34.50;;;;;;5051445;28;20386;-65
2022/04/14 03:02:19;;;;;;;3.30;2.33;;;25.20;34.40;;;;;;5051456;28;20431;-66
2022/04/14 03:04:45;;;;;;;2.53;2.33;;;25.20;34.40;;;;;;5051412;28;20389;-66
2022/04/14 03:07:10;;;;;;;2.88;2.30;;;25.20;34.10;;;;;;5051144;28;20451;-65
2022/04/14 03:09:36;;;;;;;4.38;2.70;;;25.10;34.60;;;;;;5050923;28;20402;-65
2022/04/14 03:12:02;;;;;;;4.50;2.50;;;25.10;34.60;;;;;;5051247;28;20394;-66
2022/04/14 03:14:27;;;;;;;6.07;2.50;;;25.10;34.70;;;;;;5051171;28;20450;-66
2022/04/14 03:16:53;;;;;;;7.77;2.77;;;25.10;34.70;;;;;;5051238;28;20397;-66
2022/04/14 03:19:19;;;;;;;5.30;3.17;;;25.10;35.00;;;;;;5050844;28;20385;-65
2022/04/14 03:21:46;;;;;;;5.70;2.70;;;25.10;35.70;;;;;;5051018;28;20761;-66
2022/04/14 03:24:12;;;;;;;4.68;2.80;;;25.10;35.10;;;;;;5051235;28;20382;-66
2022/04/14 03:26:38;;;;;;;5.63;2.88;;;25.10;35.40;;;;;;5051010;28;20404;-67
2022/04/14 03:29:03;;;;;;;5.53;2.60;;;25.00;35.90;;;;;;5051127;28;20389;-66
2022/04/14 03:31:29;;;;;;;7.15;2.70;;;25.00;36.70;;;;;;5050777;28;20890;-67
2022/04/14 03:33:55;;;;;;;5.87;2.60;;;25.00;36.50;;;;;;5051001;28;20428;-66
2022/04/14 03:36:20;;;;;;;5.15;2.80;;;25.10;35.70;;;;;;5051435;28;20420;-65
2022/04/14 03:38:46;;;;;;;4.83;2.67;;;25.10;35.70;;;;;;5050757;28;20899;-66
2022/04/14 03:41:11;;;;;;;4.17;2.90;;;25.10;36.60;;;;;;5050260;28;20392;-66
2022/04/14 03:43:37;;;;;;;4.13;2.78;;;25.20;35.70;;;;;;5052072;28;20386;-65
2022/04/14 03:46:04;;;;;;;7.23;2.70;;;25.10;36.00;;;;;;5054491;28;20484;-65
2022/04/14 03:48:29;;;;;;;6.63;2.80;;;25.10;35.50;;;;;;5054567;28;20878;-63
2022/04/14 03:50:55;;;;;;;6.80;2.88;;;25.10;36.90;;;;;;5054717;28;20413;-65
2022/04/14 03:53:22;;;;;;;5.50;2.70;;;25.10;37.30;;;;;;5054511;28;20388;-66
2022/04/14 03:55:47;;;;;;;7.15;2.60;;;25.10;37.20;;;;;;5054798;28;20397;-65
2022/04/14 03:58:17;;;;;;;6.87;2.70;;;25.10;37.40;;;;;;5054893;28;20774;-66
2022/04/14 04:00:43;;;;;;;6.25;2.55;;;25.10;37.00;;;;;;5037337;28;20408;-65
2022/04/14 04:03:10;;;;;;;5.93;2.45;;;25.10;36.00;;;;;;5036770;28;20402;-66
2022/04/14 04:05:35;;;;;;;5.68;2.60;;;25.00;36.00;;;;;;5054248;28;20416;-66
2022/04/14 04:08:01;;;;;;;13.33;2.93;;;25.00;35.20;;;;;;5054611;28;20462;-65
2022/04/14 04:10:27;;;;;;;17.83;2.92;;;25.00;35.70;;;;;;5054575;28;20416;-66
2022/04/14 04:12:53;;;;;;;11.00;2.87;;;25.00;35.90;;;;;;5054577;28;21063;-66
2022/04/14 04:15:18;;;;;;;10.32;2.85;;;25.10;35.00;;;;;;5054321;28;20480;-64
2022/04/14 04:17:46;;;;;;;9.30;2.90;;;25.00;34.30;;;;;;5054717;28;20394;-66
2022/04/14 04:20:12;;;;;;;6.50;2.83;;;25.00;34.40;;;;;;5054372;28;20479;-66
2022/04/14 04:22:38;;;;;;;9.57;2.80;;;25.00;34.10;;;;;;5054313;28;20385;-66
2022/04/14 04:25:05;;;;;;;9.82;2.63;;;25.00;34.10;;;;;;5054332;28;20502;-65
2022/04/14 04:27:30;;;;;;;6.30;2.70;;;25.00;34.10;;;;;;5053877;28;20382;-66
2022/04/14 04:29:56;;;;;;;7.45;2.78;;;25.00;34.30;;;;;;5054172;28;20408;-66
2022/04/14 04:32:21;;;;;;;6.63;2.70;;;25.00;34.40;;;;;;5054233;28;20404;-66
2022/04/14 04:34:47;;;;;;;4.53;2.45;;;24.90;34.40;;;;;;5054215;28;20862;-65
2022/04/14 04:37:13;;;;;;;5.80;2.60;;;25.00;34.50;;;;;;5053751;28;20824;-65
2022/04/14 04:39:38;;;;;;;4.80;2.22;;;24.90;34.50;;;;;;5054103;28;20818;-66
2022/04/14 04:42:04;;;;;;;4.32;2.40;;;24.90;34.50;;;;;;5052872;28;20485;-67
2022/04/14 04:44:30;;;;;;;6.00;2.47;;;24.90;34.50;;;;;;5053145;28;20761;-66
2022/04/14 04:46:56;;;;;;;5.63;2.20;;;24.90;34.50;;;;;;5053859;28;20800;-66
2022/04/14 04:49:21;;;;;;;4.37;2.30;;;24.90;34.60;;;;;;5053215;28;20796;-65
2022/04/14 04:51:47;;;;;;;3.25;2.30;;;24.90;34.60;;;;;;5053737;28;20397;-66
2022/04/14 04:54:12;;;;;;;4.47;2.50;;;24.90;34.60;;;;;;5052964;28;20389;-65
2022/04/14 04:56:38;;;;;;;3.70;2.20;;;24.90;34.50;;;;;;5053185;28;20421;-66
2022/04/14 04:59:04;;;;;;;5.07;2.40;;;24.90;35.10;;;;;;5052586;28;20479;-66
2022/04/14 05:01:29;;;;;;;3.63;2.30;;;24.90;34.40;;;;;;5053259;28;20443;-66
2022/04/14 05:03:55;;;;;;;4.82;2.30;;;24.90;34.50;;;;;;5053504;28;20401;-66
2022/04/14 05:06:20;;;;;;;3.93;2.30;;;24.90;34.50;;;;;;5053643;28;20475;-66
2022/04/14 05:08:49;;;;;;;3.90;2.30;;;24.90;34.40;;;;;;5053330;28;20389;-66
2022/04/14 05:11:15;;;;;;;4.32;2.28;;;25.00;34.40;;;;;;5053053;28;20425;-66
2022/04/14 05:13:41;;;;;;;3.57;2.20;;;25.00;34.40;;;;;;5053185;28;20389;-65
2022/04/14 05:16:07;;;;;;;4.75;2.30;;;24.90;34.40;;;;;;5036092;28;20461;-66
2022/04/14 05:18:36;;;;;;;3.08;2.17;;;24.90;34.40;;;;;;5053712;28;20378;-66
2022/04/14 05:21:02;;;;;;;4.32;2.20;;;24.90;34.50;;;;;;5053225;28;20391;-66
2022/04/14 05:23:27;;;;;;;2.85;2.25;;;24.90;34.50;;;;;;5052791;28;20385;-66
2022/04/14 05:25:54;;;;;;;2.65;2.15;;;24.80;34.40;;;;;;5053322;28;20424;-66
2022/04/14 05:28:20;;;;;;;2.53;2.00;;;24.80;34.40;;;;;;5053988;28;20390;-66
2022/04/14 05:30:46;;;;;;;3.90;2.60;;;24.90;34.50;;;;;;5053110;28;20432;-65
2022/04/14 05:33:13;;;;;;;4.13;2.80;;;24.90;34.50;;;;;;5053569;28;20403;-65
2022/04/14 05:35:39;;;;;;;3.63;2.97;;;24.80;34.50;;;;;;5053167;28;20390;-65
2022/04/14 05:38:05;;;;;;;5.40;3.88;;;24.80;34.40;;;;;;5052965;28;21001;-66
2022/04/14 05:40:32;;;;;;;5.28;4.30;;;24.80;34.50;;;;;;5052797;28;20405;-66
2022/04/14 05:42:57;;;;;;;4.10;3.40;;;24.80;34.50;;;;;;5051119;28;20430;-67
2022/04/14 05:45:23;;;;;;;7.38;3.90;;;24.80;35.00;;;;;;5052239;28;20400;-66
2022/04/14 05:47:49;;;;;;;6.80;3.90;;;24.90;35.60;;;;;;5052467;28;20458;-67
2022/04/14 05:50:15;;;;;;;7.03;4.10;;;24.90;35.60;;;;;;5052578;28;20409;-66
2022/04/14 05:52:41;;;;;;;7.63;4.25;;;25.00;35.60;;;;;;5051275;28;20890;-65
2022/04/14 05:55:08;;;;;;;6.57;4.07;;;25.00;35.30;;;;;;5052546;28;20420;-67
2022/04/14 05:57:33;;;;;;;9.05;4.10;;;25.00;36.60;;;;;;5050723;28;20421;-67
2022/04/14 05:59:59;;;;;;;6.80;3.90;;;25.10;36.10;;;;;;5052428;28;20385;-67
2022/04/14 06:02:26;;;;;;;7.57;3.97;;;25.10;35.80;;;;;;5052276;28;20476;-67
2022/04/14 06:04:52;;;;;;;8.23;4.40;;;25.10;36.60;;;;;;5051197;28;20761;-65
2022/04/14 06:07:18;;;;;;;6.40;4.00;;;25.10;36.50;;;;;;5051885;28;20472;-66
2022/04/14 06:09:44;;;;;;;5.75;3.95;;;25.20;36.20;;;;;;5051923;28;20505;-66
2022/04/14 06:12:10;;;;;;;7.20;4.10;;;25.20;36.30;;;;;;5052184;28;20428;-66
2022/04/14 06:14:36;;;;;;;8.07;4.20;;;25.20;35.80;;;;;;5052046;28;20743;-66
2022/04/14 06:17:01;;;;;;;6.93;4.30;;;25.20;36.30;;;;;;5052157;28;20440;-66
2022/04/14 06:19:27;;;;;;;8.43;4.20;;;25.30;36.10;;;;;;5051487;28;20754;-66
2022/04/14 06:21:53;;;;;;;5.87;3.70;;;25.30;36.30;;;;;;5052129;28;20466;-65
2022/04/14 06:24:18;;;;;;;5.70;3.90;;;25.20;35.30;;;;;;5051884;28;20389;-65
2022/04/14 06:26:44;;;;;;;5.68;3.50;;;25.30;35.30;;;;;;5050967;28;20397;-65
2022/04/14 06:29:10;;;;;;;5.32;3.65;;;25.20;34.40;;;;;;5052081;28;20401;-66
2022/04/14 06:31:37;;;;;;;5.20;3.67;;;25.20;34.80;;;;;;5051424;28;20417;-65
2022/04/14 06:34:05;;;;;;;6.75;3.70;;;25.20;34.90;;;;;;5051873;28;20880;-66
2022/04/14 06:36:31;;;;;;;6.43;3.40;;;25.20;34.70;;;;;;5051669;28;20397;-65
2022/04/14 06:38:57;;;;;;;5.72;3.20;;;25.20;34.40;;;;;;5051806;28;20390;-65
2022/04/14 06:41:22;;;;;;;4.95;3.33;;;25.20;34.40;;;;;;5051326;28;20504;-65
2022/04/14 06:43:49;;;;;;;4.30;3.30;;;25.20;34.60;;;;;;5051076;28;20480;-65
2022/04/14 06:46:18;;;;;;;6.20;3.35;;;25.20;34.50;;;;;;5052493;28;20411;-65
2022/04/14 06:48:44;;;;;;;6.20;3.25;;;25.20;34.80;;;;;;5033520;28;20860;-65
2022/04/14 06:51:13;;;;;;;6.65;3.10;;;25.20;34.80;;;;;;5052931;28;20994;-65
2022/04/14 06:53:41;;;;;;;5.25;3.17;;;25.30;35.10;;;;;;5050398;28;20802;-65
2022/04/14 06:56:07;;;;;;;4.93;2.97;;;25.30;35.10;;;;;;5033743;28;20496;-65
2022/04/14 06:58:35;;;;;;;5.50;3.10;;;25.40;35.10;;;;;;5050131;28;20821;-65
2022/04/14 07:01:01;;;;;;;5.93;3.17;;;25.40;35.20;;;;;;5042362;28;20377;-66
2022/04/14 07:03:27;;;;;;;4.67;3.20;;;25.40;35.20;;;;;;5049708;28;20397;-65
2022/04/14 07:05:56;;;;;;;7.22;3.15;;;25.40;35.50;;;;;;5050370;28;20386;-65
2022/04/14 07:08:25;;;;;;;4.05;3.28;;;25.40;35.40;;;;;;5047885;28;20382;-65
2022/04/14 07:10:51;;;;;;;4.63;3.20;;;25.50;35.30;;;;;;5049993;28;20421;-66
2022/04/14 07:13:17;;;;;;;4.45;3.08;;;25.50;35.40;;;;;;5050292;28;20382;-64
2022/04/14 07:15:43;;;;;;;5.20;3.20;;;25.50;35.20;;;;;;5049866;28;20467;-65
2022/04/14 07:18:09;;;;;;;4.03;3.00;;;25.40;35.10;;;;;;5052464;28;20424;-65
2022/04/14 07:20:35;;;;;;;4.13;3.00;;;25.30;35.10;;;;;;5056271;28;20385;-65
2022/04/14 07:23:02;;;;;;;4.87;3.07;;;25.30;34.90;;;;;;5055578;28;20388;-65
2022/04/14 07:25:30;;;;;;;4.30;2.95;;;25.30;34.90;;;;;;5054559;28;20392;-64
2022/04/14 07:27:56;;;;;;;3.80;2.90;;;25.30;35.00;;;;;;5056239;28;20947;-63
2022/04/14 07:30:23;;;;;;;4.43;2.88;;;25.40;35.10;;;;;;5056310;28;20773;-64
2022/04/14 07:32:49;;;;;;;3.50;2.55;;;25.50;35.80;;;;;;5056702;28;20393;-64
2022/04/14 07:35:16;;;;;;;4.75;2.80;;;25.60;35.20;;;;;;5056094;28;20419;-64
2022/04/14 07:37:42;;;;;;;5.82;2.90;;;25.60;35.20;;;;;;5055706;28;20389;-64
2022/04/14 07:40:08;;;;;;;6.13;2.80;;;25.70;35.10;;;;;;5054905;28;20518;-64
2022/04/14 07:42:40;;;;;;;5.93;2.70;;;25.70;35.20;;;;;;5056622;28;21160;-63
2022/04/14 07:45:07;;;;;;;4.93;2.72;;;25.70;34.90;;;;;;5055572;28;20435;-63
2022/04/14 07:47:33;;;;;;;3.97;2.60;;;25.60;34.70;;;;;;5057024;28;20401;-63
2022/04/14 07:49:59;;;;;;;4.10;2.80;;;25.60;34.50;;;;;;5039631;28;20761;-64
2022/04/14 07:52:24;;;;;;;4.43;2.70;;;25.70;34.40;;;;;;5057588;28;20393;-64
2022/04/14 07:54:50;;;;;;;3.45;2.60;;;25.80;34.30;;;;;;5057601;28;20869;-64
2022/04/14 07:57:16;;;;;;;5.77;2.60;;;25.80;34.80;;;;;;5057598;28;20393;-64
2022/04/14 07:59:41;;;;;;;3.60;2.67;;;25.90;34.10;;;;;;5057041;28;20400;-64
2022/04/14 08:02:07;;;;;;;3.78;2.50;;;25.90;34.10;;;;;;5057278;28;20410;-64
2022/04/14 08:04:34;;;;;;;3.55;2.50;;;25.90;34.10;;;;;;5057285;28;20386;-64
2022/04/14 08:06:59;;;;;;;4.40;2.70;;;25.90;34.10;;;;;;5057524;28;20386;-64
2022/04/14 08:09:25;;;;;;;4.47;2.47;;;25.90;34.10;;;;;;5057051;28;20400;-64
2022/04/14 08:11:51;;;;;;;4.45;2.53;;;25.90;34.10;;;;;;5057154;28;20749;-64
2022/04/14 08:14:17;;;;;;;4.00;2.50;;;25.90;34.10;;;;;;5057404;28;20888;-64
2022/04/14 08:16:43;;;;;;;3.75;2.50;;;26.00;34.20;;;;;;5057130;28;20404;-65
2022/04/14 08:19:08;;;;;;;4.07;2.40;;;26.00;34.10;;;;;;5052162;28;20489;-64
2022/04/14 08:21:34;;;;;;;3.40;2.40;;;26.00;34.10;;;;;;5032153;28;20476;-63
2022/04/14 08:24:01;;;;;;;3.27;2.40;;;26.00;34.00;;;;;;5055969;28;20508;-64
2022/04/14 08:26:27;;;;;;;3.28;2.42;;;26.10;34.10;;;;;;5021730;28;20748;-64
2022/04/14 08:28:55;;;;;;;3.38;2.50;;;26.20;34.00;;;;;;5055268;28;20390;-64
2022/04/14 08:31:21;;;;;;;3.13;2.50;;;26.20;34.00;;;;;;5051944;28;20420;-64
2022/04/14 08:33:49;;;;;;;3.72;2.30;;;26.30;34.00;;;;;;5052124;28;20398;-64
2022/04/14 08:36:17;;;;;;;2.72;2.22;;;26.30;33.90;;;;;;5052747;28;20476;-64
2022/04/14 08:38:47;;;;;;;3.38;2.50;;;26.30;33.70;;;;;;5052548;28;20443;-63
2022/04/14 08:41:23;;;;;;;3.22;2.22;;;26.40;33.70;;;;;;5052581;28;20388;-63
2022/04/14 08:43:58;;;;;;;3.08;2.30;;;26.40;33.60;;;;;;5052222;28;20398;-64
2022/04/14 08:46:27;;;;;;;2.90;2.10;;;26.50;33.60;;;;;;5051084;28;20773;-63
2022/04/14 08:48:56;;;;;;;3.13;2.00;;;26.60;33.60;;;;;;5052459;28;20393;-64
2022/04/14 08:51:22;;;;;;;2.95;2.25;;;26.60;33.60;;;;;;5052059;28;20416;-64
2022/04/14 08:53:49;;;;;;;3.03;2.20;;;26.60;33.50;;;;;;5052447;28;20401;-63
2022/04/14 08:56:15;;;;;;;2.75;2.20;;;26.70;33.50;;;;;;5049824;28;20420;-64
2022/04/14 08:58:42;;;;;;;2.80;2.22;;;26.70;33.40;;;;;;5052241;28;20394;-64
2022/04/14 09:01:08;;;;;;;3.15;2.17;;;26.80;33.40;;;;;;5052201;28;20401;-64
2022/04/14 09:03:34;;;;;;;2.97;2.00;;;26.80;33.40;;;;;;5051745;28;20468;-64
2022/04/14 09:06:01;;;;;;;3.27;2.40;;;26.80;33.40;;;;;;5052519;28;20385;-64
2022/04/14 09:08:27;;;;;;;3.42;2.28;;;26.80;33.30;;;;;;5052199;28;20415;-64
2022/04/14 09:10:53;;;;;;;2.90;1.90;;;26.80;33.30;;;;;;5051894;28;20417;-64
2022/04/14 09:13:20;;;;;;;3.53;2.10;;;26.80;33.30;;;;;;5051829;28;20765;-64
2022/04/14 09:15:47;;;;;;;3.00;2.05;;;26.80;33.40;;;;;;5051477;28;20402;-63
2022/04/14 09:18:13;;;;;;;2.70;2.00;;;26.90;34.10;;;;;;5051757;28;20389;-64
2022/04/14 09:20:41;;;;;;;6.07;2.30;;;27.00;33.50;;;;;;5051682;28;20753;-64
2022/04/14 09:23:20;;;;;;;5.30;2.97;;;27.00;33.10;;;;;;5052277;28;20393;-65
2022/04/14 09:25:50;;;;;;;4.22;2.67;;;27.00;33.10;;;;;;5050074;28;20397;-63
2022/04/14 09:28:18;;;;;;;4.82;2.97;;;27.00;33.10;;;;;;5049744;28;20394;-63
2022/04/14 09:31:07;;;;;;;4.50;2.90;;;27.00;33.10;;;;;;5053085;28;20470;-63
2022/04/14 09:33:43;;;;;;;4.85;2.63;;;27.10;33.20;;;;;;5051735;28;20410;-63
2022/04/14 09:36:16;;;;;;;4.80;2.50;;;27.10;33.10;;;;;;5050414;28;20727;-64
2022/04/14 09:38:53;;;;;;;4.38;2.60;;;27.10;32.90;;;;;;5051092;28;20389;-63
2022/04/14 09:41:38;;;;;;;4.03;2.40;;;27.20;33.00;;;;;;5050001;28;20394;-65
2022/04/14 09:44:14;;;;;;;4.55;2.42;;;27.20;32.90;;;;;;5050593;28;20389;-65
2022/04/14 09:46:45;;;;;;;4.40;2.35;;;27.20;32.90;;;;;;5047897;28;20412;-65
2022/04/14 09:49:16;;;;;;;3.88;2.35;;;27.20;33.30;;;;;;5049667;28;20378;-64
2022/04/14 09:51:43;;;;;;;4.10;2.30;;;27.30;33.50;;;;;;5049239;28;20468;-64
2022/04/14 09:54:12;;;;;;;3.85;2.30;;;27.30;33.50;;;;;;5050155;28;20389;-65
2022/04/14 09:56:54;;;;;;;3.22;2.28;;;27.40;33.50;;;;;;5047837;28;20436;-65
2022/04/14 09:59:30;;;;;;;2.80;2.10;;;27.40;33.50;;;;;;5048668;28;20413;-65
2022/04/14 10:02:09;;;;;;;4.30;2.30;;;27.40;33.40;;;;;;5050472;28;20480;-65
2022/04/14 10:04:37;;;;;;;3.08;2.10;;;27.50;33.40;;;;;;5051522;28;20393;-65
2022/04/14 10:07:05;;;;;;;3.72;2.13;;;27.50;33.40;;;;;;5050544;28;20384;-65
2022/04/14 10:09:33;;;;;;;3.38;2.28;;;27.50;33.30;;;;;;5050406;28;20394;-66
2022/04/14 10:11:59;;;;;;;3.00;2.20;;;27.50;33.50;;;;;;5032871;28;20919;-65
2022/04/14 10:14:25;;;;;;;3.30;2.00;;;27.60;33.70;;;;;;5050393;28;20392;-64
2022/04/14 10:16:50;;;;;;;3.30;2.20;;;27.60;33.70;;;;;;5051306;28;20788;-65
2022/04/14 10:19:17;;;;;;;3.30;2.03;;;27.70;33.50;;;;;;5052357;28;20397;-63
2022/04/14 10:21:44;;;;;;;3.03;2.00;;;27.70;33.40;;;;;;5051586;28;20378;-65
2022/04/14 10:24:11;;;;;;;2.33;1.85;;;27.80;33.00;;;;;;5051468;28;20881;-65
2022/04/14 10:26:38;;;;;;;4.13;2.10;;;27.80;32.80;;;;;;5047686;28;20393;-65
2022/04/14 10:29:06;;;;;;;4.57;2.40;;;27.80;32.70;;;;;;5049110;28;20386;-66
2022/04/14 10:31:36;;;;;;;3.97;2.00;;;27.80;32.60;;;;;;5050995;28;20568;-67
2022/04/14 10:34:07;;;;;;;3.03;1.90;;;27.90;32.60;;;;;;5050369;28;20389;-66
2022/04/14 10:36:38;;;;;;;3.80;2.00;;;27.90;32.50;;;;;;5048476;28;20390;-64
2022/04/14 10:39:05;;;;;;;3.53;1.98;;;28.00;32.50;;;;;;5050917;28;20568;-66
2022/04/14 10:41:35;;;;;;;2.80;2.07;;;28.00;32.40;;;;;;5050243;28;20433;-67
2022/04/14 10:44:02;;;;;;;3.28;2.20;;;28.00;32.40;;;;;;5051160;28;20417;-67
2022/04/14 10:46:40;;;;;;;3.25;2.15;;;28.00;32.60;;;;;;5051452;28;20882;-67
2022/04/14 10:49:10;;;;;;;3.25;2.05;;;28.10;32.50;;;;;;5051407;28;20397;-67
2022/04/14 10:51:36;;;;;;;3.35;2.20;;;28.10;32.50;;;;;;5051139;28;20417;-66
2022/04/14 10:54:05;;;;;;;3.58;2.10;;;28.10;32.40;;;;;;5049974;28;20795;-66
2022/04/14 10:56:33;;;;;;;6.57;2.47;;;28.20;32.50;;;;;;5033584;28;20397;-66
2022/04/14 10:59:00;;;;;;;2.95;2.00;;;28.20;32.20;;;;;;5051384;28;20385;-66
2022/04/14 11:01:50;;;;;;;4.32;2.00;;;28.30;32.10;;;;;;5051297;28;20758;-66
2022/04/14 11:04:41;;;;;;;3.67;2.30;;;28.30;32.00;;;;;;5032762;28;20386;-66
2022/04/14 11:07:24;;;;;;;4.10;2.03;;;28.30;32.10;;;;;;5049959;28;20382;-63
2022/04/14 11:09:53;;;;;;;4.30;2.10;;;28.30;32.20;;;;;;5047404;28;20437;-66
2022/04/14 11:12:27;;;;;;;5.20;2.08;;;28.30;32.10;;;;;;5032387;28;20882;-66
2022/04/14 11:15:00;;;;;;;4.88;2.10;;;28.30;32.10;;;;;;5057267;28;20415;-65
2022/04/14 11:17:32;;;;;;;4.53;2.10;;;28.40;32.40;;;;;;5063279;28;20390;-64
2022/04/14 11:20:18;;;;;;;4.25;2.20;;;28.40;32.30;;;;;;5062268;28;20406;-67
2022/04/14 11:23:06;;;;;;;4.65;2.10;;;28.40;32.20;;;;;;5065326;28;20384;-66
2022/04/14 11:25:41;;;;;;;3.22;1.98;;;28.50;32.20;;;;;;5038942;28;20801;-66
2022/04/14 11:28:21;;;;;;;3.90;2.00;;;28.50;32.20;;;;;;5045603;28;20951;-67
2022/04/14 11:31:08;;;;;;;3.58;2.10;;;28.60;32.10;;;;;;5051252;28;20430;-66
2022/04/14 11:33:35;;;;;;;4.10;1.90;;;28.60;32.10;;;;;;5061578;28;20397;-67
2022/04/14 11:36:21;;;;;;;2.92;1.88;;;28.60;32.00;;;;;;5062668;28;20432;-67
2022/04/14 11:38:55;;;;;;;4.18;1.98;;;28.60;32.00;;;;;;5053961;28;20389;-67
2022/04/14 11:41:31;;;;;;;3.80;1.98;;;28.60;31.90;;;;;;5064244;28;20390;-67
2022/04/14 11:43:57;;;;;;;2.97;1.92;;;28.60;32.00;;;;;;5062045;28;20395;-67
2022/04/14 11:46:24;;;;;;;3.53;2.10;;;28.60;32.10;;;;;;5055360;28;20492;-67
2022/04/14 11:48:49;;;;;;;2.97;2.07;;;28.60;32.10;;;;;;5066783;28;20395;-64
2022/04/14 11:51:19;;;;;;;3.90;1.80;;;28.60;32.00;;;;;;5038466;28;20472;-67
2022/04/14 11:53:45;;;;;;;4.70;2.00;;;28.60;31.90;;;;;;5041531;28;20488;-66
2022/04/14 11:56:18;;;;;;;5.22;2.20;;;28.70;31.90;;;;;;5048020;28;20455;-67
2022/04/14 11:58:44;;;;;;;4.90;2.10;;;28.70;31.70;;;;;;5051502;28;20389;-67
2022/04/14 12:01:11;;;;;;;4.88;2.13;;;28.80;31.90;;;;;;5047774;28;20488;-67
2022/04/14 12:03:37;;;;;;;3.88;1.90;;;28.80;31.90;;;;;;5050590;28;20420;-66
2022/04/14 12:06:08;;;;;;;5.15;2.20;;;28.70;31.80;;;;;;5053910;28;20425;-66
2022/04/14 12:08:34;;;;;;;3.67;1.90;;;28.70;31.80;;;;;;5051750;28;20749;-64
2022/04/14 12:11:20;;;;;;;3.37;2.00;;;28.80;31.90;;;;;;5053868;28;20467;-66
2022/04/14 12:13:46;;;;;;;4.60;2.13;;;28.80;31.90;;;;;;5054041;28;20754;-66
2022/04/14 12:16:12;;;;;;;3.55;2.00;;;28.80;31.80;;;;;;5054395;28;20385;-67
2022/04/14 12:18:49;;;;;;;4.40;1.88;;;28.80;31.90;;;;;;5057557;28;20862;-67
2022/04/14 12:21:26;;;;;;;3.53;1.80;;;28.90;31.90;;;;;;5055281;28;20484;-66
2022/04/14 12:23:53;;;;;;;3.90;1.80;;;28.90;32.10;;;;;;5052181;28;21036;-63
2022/04/14 12:26:20;;;;;;;4.15;2.05;;;29.00;32.20;;;;;;5049814;28;20424;-67
2022/04/14 12:28:47;;;;;;;4.13;1.90;;;29.00;32.20;;;;;;5055033;28;20390;-70
2022/04/14 12:31:16;;;;;;;3.88;1.90;;;29.00;32.10;;;;;;5055443;28;20472;-64
2022/04/14 12:33:42;;;;;;;3.88;2.10;;;29.00;31.90;;;;;;5063843;28;20396;-65
2022/04/14 12:36:09;;;;;;;3.88;1.85;;;29.00;31.80;;;;;;5066667;28;20488;-65
2022/04/14 12:38:45;;;;;;;4.82;1.90;;;29.10;31.80;;;;;;5057109;28;20394;-64
2022/04/14 12:41:19;;;;;;;4.23;1.90;;;29.00;31.70;;;;;;5068443;28;20878;-65
2022/04/14 12:43:47;;;;;;;4.03;1.95;;;29.00;31.70;;;;;;5063018;28;20514;-64
2022/04/14 12:46:26;;;;;;;3.13;1.90;;;29.10;31.70;;;;;;5059448;28;20416;-64
2022/04/14 12:49:03;;;;;;;3.10;1.75;;;29.00;31.70;;;;;;5069716;28;20383;-67